Time;durP1;ratioP1;P1;durP2;ratioP2;P2;SDS_P1;SDS_P2;PMS_P1;PMS_P2;Temp;Humidity;BMP_temperature;BMP_pressure;BME280_temperature;BME280_humidity;BME280_pressure;Samples;Min_cycle;Max_cycle;Signal;HPM_P1;HPM_P2
2023/07/08 00:02:12;;;;;;;;;;;;;;;;;;5128972;27;2275;-62
2023/07/08 00:04:40;;;;;;;;;;;;;;;;;;5129728;27;2102;-57
2023/07/08 00:07:11;;;;;;;;;;;;;;;;;;5130096;27;2113;-61
2023/07/08 00:09:39;;;;;;;;;;;;;;;;;;5128904;27;2068;-60
2023/07/08 00:12:10;;;;;;;;;;;;;;;;;;5129970;27;1955;-59
2023/07/08 00:14:38;;;;;;;;;;;;;;;;;;5129331;27;2047;-51
2023/07/08 00:17:12;;;;;;;;;;;;;;;;;;5129421;27;2237;-60
2023/07/08 00:19:39;;;;;;;;;;;;;;;;;;5129437;27;2042;-59
2023/07/08 00:22:12;;;;;;;;;;;;;;;;;;5129818;27;2224;-61
2023/07/08 00:24:39;;;;;;;;;;;;;;;;;;5129024;27;2262;-64
2023/07/08 00:27:08;;;;;;;;;;;;;;;;;;5129364;27;2015;-60
2023/07/08 00:29:35;;;;;;;;;;;;;;;;;;5129653;27;1832;-61
2023/07/08 00:32:13;;;;;;;;;;;;;;;;;;5129281;28;2081;-61
2023/07/08 00:34:41;;;;;;;;;;;;;;;;;;5109013;28;1705;-58
2023/07/08 00:37:11;;;;;;;;;;;;;;;;;;5110885;28;1952;-55
2023/07/08 00:39:39;;;;;;;;;;;;;;;;;;5110179;28;2064;-61
2023/07/08 00:42:12;;;;;;;;;;;;;;;;;;5129751;28;2163;-60
2023/07/08 00:44:40;;;;;;;;;;;;;;;;;;5129086;28;2592;-51
2023/07/08 00:47:11;;;;;;;;;;;;;;;;;;5110755;28;2112;-62
2023/07/08 00:49:42;;;;;;;;;;;;;;;;;;5128858;28;1940;-62
2023/07/08 00:52:35;;;;;;;;;;;;;;;;;;5128926;28;2090;-61
2023/07/08 00:55:05;;;;;;;;;;;;;;;;;;5105032;28;1932;-63
2023/07/08 00:57:34;;;;;;;;;;;;;;;;;;5108694;28;1918;-62
2023/07/08 01:00:04;;;;;;;;;;;;;;;;;;5110270;28;2541;-60
2023/07/08 01:02:34;;;;;;;;;;;;;;;;;;5128641;28;1954;-58
2023/07/08 01:05:10;;;;;;;;;;;;;;;;;;5112346;27;1974;-61
2023/07/08 01:07:40;;;;;;;;;;;;;;;;;;5133099;27;2219;-62
2023/07/08 01:10:12;;;;;;;;;;;;;;;;;;5132814;27;1754;-59
2023/07/08 01:12:44;;;;;;;;;;;;;;;;;;5133137;27;2021;-63
2023/07/08 01:15:14;;;;;;;;;;;;;;;;;;5131419;27;2025;-60
2023/07/08 01:17:42;;;;;;;;;;;;;;;;;;5112023;28;2230;-61
2023/07/08 01:20:14;;;;;;;;;;;;;;;;;;5112637;28;2090;-56
2023/07/08 01:22:42;;;;;;;;;;;;;;;;;;5112266;28;2056;-59
2023/07/08 01:25:09;;;;;;;;;;;;;;;;;;5112034;27;1907;-61
2023/07/08 01:27:40;;;;;;;;;;;;;;;;;;5106798;27;1985;-61
2023/07/08 01:30:07;;;;;;;;;;;;;;;;;;5112408;28;2293;-62
2023/07/08 01:32:36;;;;;;;;;;;;;;;;;;5113918;27;1924;-62
2023/07/08 01:35:04;;;;;;;;;;;;;;;;;;5112400;28;1837;-61
2023/07/08 01:37:34;;;;;;;;;;;;;;;;;;5112016;28;2051;-60
2023/07/08 01:40:19;;;;;;;;;;;;;;;;;;5111289;28;1965;-59
2023/07/08 01:42:47;;;;;;;;;;;;;;;;;;5112044;28;2220;-61
2023/07/08 01:45:15;;;;;;;;;;;;;;;;;;5111722;28;2150;-62
2023/07/08 01:47:45;;;;;;;;;;;;;;;;;;5113610;27;2385;-62
2023/07/08 01:50:13;;;;;;;;;;;;;;;;;;5132286;27;2080;-60
2023/07/08 01:52:40;;;;;;;;;;;;;;;;;;5127110;27;2089;-57
2023/07/08 01:55:08;;;;;;;;;;;;;;;;;;5111911;28;2032;-61
2023/07/08 01:57:35;;;;;;;;;;;;;;;;;;5111402;28;2371;-62
2023/07/08 02:00:03;;;;;;;;;;;;;;;;;;5111776;28;1857;-52
2023/07/08 02:02:39;;;;;;;;;;;;;;;;;;5111206;28;1904;-58
2023/07/08 02:05:06;;;;;;;;;;;;;;;;;;5113750;27;2019;-61
2023/07/08 02:07:34;;;;;;;;;;;;;;;;;;5131738;27;2350;-62
2023/07/08 02:10:01;;;;;;;;;;;;;;;;;;5131609;27;1950;-60
2023/07/08 02:12:28;;;;;;;;;;;;;;;;;;5111462;28;1974;-60
2023/07/08 02:14:55;;;;;;;;;;;;;;;;;;5111138;28;1994;-54
2023/07/08 02:17:23;;;;;;;;;;;;;;;;;;5111900;27;2055;-52
2023/07/08 02:19:50;;;;;;;;;;;;;;;;;;5113160;27;1992;-49
2023/07/08 02:22:20;;;;;;;;;;;;;;;;;;5112653;27;1816;-58
2023/07/08 02:24:47;;;;;;;;;;;;;;;;;;5109774;28;1968;-60
2023/07/08 02:27:16;;;;;;;;;;;;;;;;;;5111062;28;2064;-63
2023/07/08 02:29:43;;;;;;;;;;;;;;;;;;5110998;28;2542;-55
2023/07/08 02:32:10;;;;;;;;;;;;;;;;;;5110721;28;2216;-62
2023/07/08 02:34:39;;;;;;;;;;;;;;;;;;5112733;27;2036;-58
2023/07/08 02:37:07;;;;;;;;;;;;;;;;;;5111410;28;2055;-60
2023/07/08 02:39:34;;;;;;;;;;;;;;;;;;5110518;28;2157;-62
2023/07/08 02:42:01;;;;;;;;;;;;;;;;;;5110823;28;1929;-60
2023/07/08 02:44:28;;;;;;;;;;;;;;;;;;5110689;28;2187;-62
2023/07/08 02:46:56;;;;;;;;;;;;;;;;;;5112055;27;1967;-62
2023/07/08 02:49:23;;;;;;;;;;;;;;;;;;5131392;27;2052;-62
2023/07/08 02:51:51;;;;;;;;;;;;;;;;;;5130843;27;1993;-63
2023/07/08 02:54:18;;;;;;;;;;;;;;;;;;5111821;27;1951;-61
2023/07/08 02:56:45;;;;;;;;;;;;;;;;;;5112556;27;2058;-61
2023/07/08 02:59:13;;;;;;;;;;;;;;;;;;5130607;27;2136;-56
2023/07/08 03:01:43;;;;;;;;;;;;;;;;;;5112044;27;1862;-61
2023/07/08 03:04:14;;;;;;;;;;;;;;;;;;5110584;28;1693;-60
2023/07/08 03:06:41;;;;;;;;;;;;;;;;;;5110422;27;2140;-50
2023/07/08 03:09:10;;;;;;;;;;;;;;;;;;5110168;28;1956;-51
2023/07/08 03:11:37;;;;;;;;;;;;;;;;;;5130851;27;1969;-55
2023/07/08 03:14:05;;;;;;;;;;;;;;;;;;5130932;27;2092;-62
2023/07/08 03:16:32;;;;;;;;;;;;;;;;;;5129910;27;1836;-58
2023/07/08 03:19:00;;;;;;;;;;;;;;;;;;5130690;27;2117;-60
2023/07/08 03:21:28;;;;;;;;;;;;;;;;;;5111924;27;2235;-62
2023/07/08 03:23:57;;;;;;;;;;;;;;;;;;5110606;27;2082;-62
2023/07/08 03:26:26;;;;;;;;;;;;;;;;;;5119417;27;2000;-51
2023/07/08 03:28:56;;;;;;;;;;;;;;;;;;5092136;28;2244;-59
2023/07/08 03:31:24;;;;;;;;;;;;;;;;;;5111772;27;2297;-54
2023/07/08 03:33:53;;;;;;;;;;;;;;;;;;5111657;27;1729;-61
2023/07/08 03:36:24;;;;;;;;;;;;;;;;;;5111441;27;2139;-61
2023/07/08 03:38:52;;;;;;;;;;;;;;;;;;5111604;27;2262;-60
2023/07/08 03:41:19;;;;;;;;;;;;;;;;;;5129775;27;2147;-56
2023/07/08 03:43:50;;;;;;;;;;;;;;;;;;5129711;27;2183;-56
2023/07/08 03:46:19;;;;;;;;;;;;;;;;;;5129608;27;2025;-58
2023/07/08 03:48:47;;;;;;;;;;;;;;;;;;5130216;27;2084;-62
2023/07/08 03:51:27;;;;;;;;;;;;;;;;;;5110972;27;1950;-50
2023/07/08 03:53:55;;;;;;;;;;;;;;;;;;5114438;27;2213;-56
2023/07/08 03:56:23;;;;;;;;;;;;;;;;;;5109138;28;2066;-55
2023/07/08 03:58:51;;;;;;;;;;;;;;;;;;5109209;28;2102;-61
2023/07/08 04:01:20;;;;;;;;;;;;;;;;;;5109389;28;2257;-56
2023/07/08 04:03:48;;;;;;;;;;;;;;;;;;5093737;28;1979;-58
2023/07/08 04:06:15;;;;;;;;;;;;;;;;;;5110944;27;1868;-57
2023/07/08 04:08:43;;;;;;;;;;;;;;;;;;5129586;27;1758;-58
2023/07/08 04:11:15;;;;;;;;;;;;;;;;;;5129848;27;1766;-55
2023/07/08 04:13:42;;;;;;;;;;;;;;;;;;5129175;27;1984;-50
2023/07/08 04:16:17;;;;;;;;;;;;;;;;;;5129809;27;1913;-57
2023/07/08 04:18:47;;;;;;;;;;;;;;;;;;5129591;27;2455;-61
2023/07/08 04:21:14;;;;;;;;;;;;;;;;;;5129518;27;2034;-60
2023/07/08 04:23:44;;;;;;;;;;;;;;;;;;5129452;27;1753;-60
2023/07/08 04:26:12;;;;;;;;;;;;;;;;;;5129646;27;1779;-61
2023/07/08 04:28:39;;;;;;;;;;;;;;;;;;5128799;27;2244;-53
2023/07/08 04:31:06;;;;;;;;;;;;;;;;;;5129640;27;2047;-58
2023/07/08 04:33:33;;;;;;;;;;;;;;;;;;5129282;28;2207;-57
2023/07/08 04:36:01;;;;;;;;;;;;;;;;;;5128793;28;2128;-61
2023/07/08 04:38:28;;;;;;;;;;;;;;;;;;5128944;27;1926;-55
2023/07/08 04:40:57;;;;;;;;;;;;;;;;;;5132563;27;2023;-62
2023/07/08 04:43:28;;;;;;;;;;;;;;;;;;5132934;27;2087;-58
2023/07/08 04:45:56;;;;;;;;;;;;;;;;;;5133654;27;2039;-60
2023/07/08 04:48:25;;;;;;;;;;;;;;;;;;5133269;27;2143;-59
2023/07/08 04:50:52;;;;;;;;;;;;;;;;;;5133014;27;2180;-60
2023/07/08 04:53:20;;;;;;;;;;;;;;;;;;5122586;27;2042;-60
2023/07/08 04:55:52;;;;;;;;;;;;;;;;;;5112677;28;1933;-58
2023/07/08 04:58:19;;;;;;;;;;;;;;;;;;5112101;28;1898;-60
2023/07/08 05:00:47;;;;;;;;;;;;;;;;;;5112898;28;2020;-56
2023/07/08 05:03:15;;;;;;;;;;;;;;;;;;5112866;27;1981;-59
2023/07/08 05:05:42;;;;;;;;;;;;;;;;;;5112578;28;1986;-62
2023/07/08 05:08:11;;;;;;;;;;;;;;;;;;5112605;28;1939;-60
2023/07/08 05:10:39;;;;;;;;;;;;;;;;;;5112651;27;2180;-56
2023/07/08 05:13:07;;;;;;;;;;;;;;;;;;5112503;28;1943;-59
2023/07/08 05:15:35;;;;;;;;;;;;;;;;;;5112323;28;1981;-58
2023/07/08 05:18:02;;;;;;;;;;;;;;;;;;5112610;27;2063;-60
2023/07/08 05:20:32;;;;;;;;;;;;;;;;;;5111661;28;1983;-61
2023/07/08 05:23:00;;;;;;;;;;;;;;;;;;5112516;27;2276;-61
2023/07/08 05:25:30;;;;;;;;;;;;;;;;;;5112254;28;2310;-61
2023/07/08 05:27:58;;;;;;;;;;;;;;;;;;5111825;28;2052;-61
2023/07/08 05:30:25;;;;;;;;;;;;;;;;;;5112258;28;1918;-60
2023/07/08 05:32:53;;;;;;;;;;;;;;;;;;5112115;28;2020;-61
2023/07/08 05:35:20;;;;;;;;;;;;;;;;;;5132209;27;2142;-60
2023/07/08 05:37:47;;;;;;;;;;;;;;;;;;5132555;27;2147;-60
2023/07/08 05:40:15;;;;;;;;;;;;;;;;;;5132293;27;2178;-60
2023/07/08 05:42:42;;;;;;;;;;;;;;;;;;5132124;27;2063;-61
2023/07/08 05:45:10;;;;;;;;;;;;;;;;;;5132344;27;2095;-60
2023/07/08 05:47:38;;;;;;;;;;;;;;;;;;5114461;27;2130;-60
2023/07/08 05:50:05;;;;;;;;;;;;;;;;;;5132012;27;1947;-58
2023/07/08 05:52:33;;;;;;;;;;;;;;;;;;5127940;27;2020;-58
2023/07/08 05:55:00;;;;;;;;;;;;;;;;;;5094860;28;2304;-61
2023/07/08 05:57:27;;;;;;;;;;;;;;;;;;5110925;28;2023;-61
2023/07/08 05:59:55;;;;;;;;;;;;;;;;;;5111632;28;2319;-58
2023/07/08 06:02:25;;;;;;;;;;;;;;;;;;5111528;28;2139;-58
2023/07/08 06:04:53;;;;;;;;;;;;;;;;;;5110756;28;2074;-59
2023/07/08 06:07:20;;;;;;;;;;;;;;;;;;5111509;27;2084;-57
2023/07/08 06:09:47;;;;;;;;;;;;;;;;;;5111561;27;2085;-61
2023/07/08 06:12:15;;;;;;;;;;;;;;;;;;5131652;27;2418;-58
2023/07/08 06:14:42;;;;;;;;;;;;;;;;;;5131681;27;2191;-60
2023/07/08 06:17:09;;;;;;;;;;;;;;;;;;5131637;27;2102;-53
2023/07/08 06:19:37;;;;;;;;;;;;;;;;;;5131495;27;2021;-61
2023/07/08 06:22:04;;;;;;;;;;;;;;;;;;5131589;27;1839;-58
2023/07/08 06:24:51;;;;;;;;;;;;;;;;;;5131933;27;2045;-59
2023/07/08 06:27:18;;;;;;;;;;;;;;;;;;5130933;27;1949;-52
2023/07/08 06:29:46;;;;;;;;;;;;;;;;;;5131492;27;2016;-59
2023/07/08 06:32:13;;;;;;;;;;;;;;;;;;5131914;27;1795;-61
2023/07/08 06:34:40;;;;;;;;;;;;;;;;;;5110509;28;1921;-57
2023/07/08 06:37:07;;;;;;;;;;;;;;;;;;5111360;28;2096;-61
2023/07/08 06:39:34;;;;;;;;;;;;;;;;;;5110886;28;2035;-60
2023/07/08 06:42:02;;;;;;;;;;;;;;;;;;5110407;28;1841;-60
2023/07/08 06:44:32;;;;;;;;;;;;;;;;;;5112834;27;2060;-60
2023/07/08 06:46:59;;;;;;;;;;;;;;;;;;5129164;27;1939;-59
2023/07/08 06:49:27;;;;;;;;;;;;;;;;;;5130651;27;1938;-61
2023/07/08 06:51:54;;;;;;;;;;;;;;;;;;5131052;27;2096;-58
2023/07/08 06:54:24;;;;;;;;;;;;;;;;;;5111852;27;2528;-60
2023/07/08 06:56:51;;;;;;;;;;;;;;;;;;5109852;28;1987;-60
2023/07/08 06:59:19;;;;;;;;;;;;;;;;;;5110514;27;1910;-53
2023/07/08 07:01:46;;;;;;;;;;;;;;;;;;5110288;28;1920;-60
2023/07/08 07:04:13;;;;;;;;;;;;;;;;;;5109926;28;1914;-60
2023/07/08 07:06:41;;;;;;;;;;;;;;;;;;5119367;27;1990;-60
2023/07/08 07:09:08;;;;;;;;;;;;;;;;;;5131027;27;1869;-58
2023/07/08 07:11:35;;;;;;;;;;;;;;;;;;5130217;27;2323;-57
2023/07/08 07:14:03;;;;;;;;;;;;;;;;;;5130749;27;1852;-60
2023/07/08 07:16:50;;;;;;;;;;;;;;;;;;5130724;27;2202;-57
2023/07/08 07:19:24;;;;;;;;;;;;;;;;;;5129945;27;1981;-60
2023/07/08 07:21:51;;;;;;;;;;;;;;;;;;5130244;27;1966;-59
2023/07/08 07:24:19;;;;;;;;;;;;;;;;;;5130337;27;1880;-52
2023/07/08 07:26:46;;;;;;;;;;;;;;;;;;5130188;27;2208;-60
2023/07/08 07:29:17;;;;;;;;;;;;;;;;;;5130440;27;2035;-55
2023/07/08 07:31:46;;;;;;;;;;;;;;;;;;5130391;27;2029;-57
2023/07/08 07:34:15;;;;;;;;;;;;;;;;;;5109555;28;1893;-57
2023/07/08 07:36:42;;;;;;;;;;;;;;;;;;5109700;27;2045;-61
2023/07/08 07:39:11;;;;;;;;;;;;;;;;;;5109594;28;1990;-54
2023/07/08 07:41:38;;;;;;;;;;;;;;;;;;5109606;28;2270;-60
2023/07/08 07:44:06;;;;;;;;;;;;;;;;;;5109807;28;1821;-60
2023/07/08 07:46:33;;;;;;;;;;;;;;;;;;5109758;28;2345;-60
2023/07/08 07:49:01;;;;;;;;;;;;;;;;;;5109168;28;1922;-57
2023/07/08 07:51:29;;;;;;;;;;;;;;;;;;5109317;28;2255;-60
2023/07/08 07:53:57;;;;;;;;;;;;;;;;;;5109670;28;1967;-59
2023/07/08 07:56:24;;;;;;;;;;;;;;;;;;5108881;28;1845;-60
2023/07/08 07:58:52;;;;;;;;;;;;;;;;;;5109814;28;2070;-60
2023/07/08 08:01:20;;;;;;;;;;;;;;;;;;5109006;28;2426;-54
2023/07/08 08:03:50;;;;;;;;;;;;;;;;;;5108643;28;2382;-60
2023/07/08 08:06:18;;;;;;;;;;;;;;;;;;5109539;28;2237;-54
2023/07/08 08:08:46;;;;;;;;;;;;;;;;;;5109259;28;2119;-60
2023/07/08 08:11:13;;;;;;;;;;;;;;;;;;5108963;28;2037;-60
2023/07/08 08:13:41;;;;;;;;;;;;;;;;;;5108714;28;2104;-59
2023/07/08 08:16:11;;;;;;;;;;;;;;;;;;5108894;28;1966;-59
2023/07/08 08:18:39;;;;;;;;;;;;;;;;;;5108819;28;2023;-62
2023/07/08 08:21:06;;;;;;;;;;;;;;;;;;5109128;28;2112;-57
2023/07/08 08:23:34;;;;;;;;;;;;;;;;;;5127270;27;2049;-59
2023/07/08 08:26:02;;;;;;;;;;;;;;;;;;5128991;27;1740;-56
2023/07/08 08:28:29;;;;;;;;;;;;;;;;;;5128922;27;2173;-59
2023/07/08 08:30:57;;;;;;;;;;;;;;;;;;5129720;27;2064;-60
2023/07/08 08:33:24;;;;;;;;;;;;;;;;;;5108309;28;1886;-58
2023/07/08 08:35:52;;;;;;;;;;;;;;;;;;5108754;28;1811;-59
2023/07/08 08:38:20;;;;;;;;;;;;;;;;;;5109115;28;2196;-51
2023/07/08 08:40:47;;;;;;;;;;;;;;;;;;5108527;28;1938;-58
2023/07/08 08:43:23;;;;;;;;;;;;;;;;;;5109059;28;2221;-60
2023/07/08 08:46:00;;;;;;;;;;;;;;;;;;5119066;28;1861;-60
2023/07/08 08:48:30;;;;;;;;;;;;;;;;;;5128890;28;2090;-61
2023/07/08 08:51:04;;;;;;;;;;;;;;;;;;5129136;28;2080;-60
2023/07/08 08:53:32;;;;;;;;;;;;;;;;;;5108428;28;2220;-52
2023/07/08 08:56:14;;;;;;;;;;;;;;;;;;5128506;28;1938;-60
2023/07/08 08:59:02;;;;;;;;;;;;;;;;;;5090857;28;2297;-58
2023/07/08 09:01:30;;;;;;;;;;;;;;;;;;5108443;28;2132;-58
2023/07/08 09:04:07;;;;;;;;;;;;;;;;;;5108246;28;1650;-58
2023/07/08 09:06:35;;;;;;;;;;;;;;;;;;5108277;28;1941;-60
2023/07/08 09:09:05;;;;;;;;;;;;;;;;;;5108816;28;2179;-59
2023/07/08 09:11:40;;;;;;;;;;;;;;;;;;5107827;28;2044;-53
2023/07/08 09:14:26;;;;;;;;;;;;;;;;;;5108929;28;1888;-59
2023/07/08 09:17:09;;;;;;;;;;;;;;;;;;5122460;28;2117;-59
2023/07/08 09:19:43;;;;;;;;;;;;;;;;;;5128742;28;2409;-57
2023/07/08 09:22:26;;;;;;;;;;;;;;;;;;5128989;28;2176;-51
2023/07/08 09:24:56;;;;;;;;;;;;;;;;;;5127759;27;2128;-54
2023/07/08 09:27:24;;;;;;;;;;;;;;;;;;5132533;27;2018;-59
2023/07/08 09:29:51;;;;;;;;;;;;;;;;;;5132630;27;1962;-58
2023/07/08 09:32:20;;;;;;;;;;;;;;;;;;5132324;27;2214;-59
2023/07/08 09:34:50;;;;;;;;;;;;;;;;;;5132832;27;1817;-61
2023/07/08 09:37:29;;;;;;;;;;;;;;;;;;5132120;27;1938;-58
2023/07/08 09:39:57;;;;;;;;;;;;;;;;;;5132016;27;2160;-58
2023/07/08 09:42:27;;;;;;;;;;;;;;;;;;5131825;27;2138;-59
2023/07/08 09:44:56;;;;;;;;;;;;;;;;;;5132477;27;2077;-59
2023/07/08 09:47:26;;;;;;;;;;;;;;;;;;5132184;27;1691;-60
2023/07/08 09:49:54;;;;;;;;;;;;;;;;;;5111247;27;2073;-59
2023/07/08 09:52:21;;;;;;;;;;;;;;;;;;5110852;28;2229;-59
2023/07/08 09:54:49;;;;;;;;;;;;;;;;;;5110282;27;1750;-59
2023/07/08 09:57:30;;;;;;;;;;;;;;;;;;5110479;28;1857;-60
2023/07/08 10:00:03;;;;;;;;;;;;;;;;;;5110646;28;2054;-56
2023/07/08 10:02:41;;;;;;;;;;;;;;;;;;5110113;28;2017;-57
2023/07/08 10:05:27;;;;;;;;;;;;;;;;;;5110975;28;1924;-60
2023/07/08 10:07:55;;;;;;;;;;;;;;;;;;5110600;28;1890;-59
2023/07/08 10:10:44;;;;;;;;;;;;;;;;;;5113495;27;1859;-58
2023/07/08 10:13:23;;;;;;;;;;;;;;;;;;5132526;27;2063;-58
2023/07/08 10:15:54;;;;;;;;;;;;;;;;;;5132686;27;2231;-58
2023/07/08 10:18:28;;;;;;;;;;;;;;;;;;5131832;27;1830;-59
2023/07/08 10:20:56;;;;;;;;;;;;;;;;;;5132149;27;1984;-59
2023/07/08 10:23:43;;;;;;;;;;;;;;;;;;5131748;27;2008;-53
2023/07/08 10:26:31;;;;;;;;;;;;;;;;;;5132575;27;2113;-57
2023/07/08 10:29:14;;;;;;;;;;;;;;;;;;5113978;27;2273;-54
2023/07/08 10:31:46;;;;;;;;;;;;;;;;;;5131437;27;2150;-59
2023/07/08 10:34:23;;;;;;;;;;;;;;;;;;5132088;27;2032;-60
2023/07/08 10:36:53;;;;;;;;;;;;;;;;;;5111267;28;1940;-52
2023/07/08 10:39:30;;;;;;;;;;;;;;;;;;5110880;28;1718;-54
2023/07/08 10:42:00;;;;;;;;;;;;;;;;;;5111781;28;2107;-52
2023/07/08 10:44:28;;;;;;;;;;;;;;;;;;5111368;28;2297;-60
2023/07/08 10:47:04;;;;;;;;;;;;;;;;;;5111336;28;2103;-52
2023/07/08 10:49:41;;;;;;;;;;;;;;;;;;5111580;28;1837;-59
2023/07/08 10:52:14;;;;;;;;;;;;;;;;;;5111600;28;2123;-57
2023/07/08 10:54:42;;;;;;;;;;;;;;;;;;5110605;28;1904;-54
2023/07/08 10:57:16;;;;;;;;;;;;;;;;;;5111305;27;2317;-55
2023/07/08 10:59:44;;;;;;;;;;;;;;;;;;5118119;27;1865;-59
2023/07/08 11:02:34;;;;;;;;;;;;;;;;;;5131138;27;2228;-59
2023/07/08 11:05:16;;;;;;;;;;;;;;;;;;5111034;27;2093;-59
2023/07/08 11:07:44;;;;;;;;;;;;;;;;;;5110250;28;2005;-53
2023/07/08 11:10:22;;;;;;;;;;;;;;;;;;5110805;28;1980;-53
2023/07/08 11:13:12;;;;;;;;;;;;;;;;;;5110906;28;2270;-57
2023/07/08 11:15:46;;;;;;;;;;;;;;;;;;5100261;27;1938;-57
2023/07/08 11:18:29;;;;;;;;;;;;;;;;;;5110816;28;1997;-56
2023/07/08 11:21:02;;;;;;;;;;;;;;;;;;5109639;27;1975;-60
2023/07/08 11:23:36;;;;;;;;;;;;;;;;;;5108661;27;1868;-56
2023/07/08 11:26:07;;;;;;;;;;;;;;;;;;5109412;27;1885;-52
2023/07/08 11:28:34;;;;;;;;;;;;;;;;;;5109211;28;1778;-55
2023/07/08 11:31:03;;;;;;;;;;;;;;;;;;5109157;28;1943;-54
2023/07/08 11:33:32;;;;;;;;;;;;;;;;;;5109420;28;1809;-58
2023/07/08 11:36:03;;;;;;;;;;;;;;;;;;5108979;27;2003;-54
2023/07/08 11:38:33;;;;;;;;;;;;;;;;;;5108901;28;1801;-58
2023/07/08 11:41:01;;;;;;;;;;;;;;;;;;5109185;28;1971;-51
2023/07/08 11:43:47;;;;;;;;;;;;;;;;;;5109017;28;1833;-54
2023/07/08 11:46:19;;;;;;;;;;;;;;;;;;5108780;28;1881;-59
2023/07/08 11:48:49;;;;;;;;;;;;;;;;;;5109040;28;2115;-56
2023/07/08 11:51:19;;;;;;;;;;;;;;;;;;5108947;28;1809;-58
2023/07/08 11:53:49;;;;;;;;;;;;;;;;;;5108702;28;2095;-55
2023/07/08 11:56:16;;;;;;;;;;;;;;;;;;5110911;27;2558;-58
2023/07/08 11:58:46;;;;;;;;;;;;;;;;;;5129361;27;2151;-55
2023/07/08 12:01:14;;;;;;;;;;;;;;;;;;5115099;27;1992;-54
2023/07/08 12:03:49;;;;;;;;;;;;;;;;;;5129129;27;1859;-50
2023/07/08 12:06:26;;;;;;;;;;;;;;;;;;5129197;27;1992;-56
2023/07/08 12:08:55;;;;;;;;;;;;;;;;;;5128760;27;1963;-54
2023/07/08 12:11:39;;;;;;;;;;;;;;;;;;5129210;27;1867;-54
2023/07/08 12:14:08;;;;;;;;;;;;;;;;;;5129381;27;1675;-59
2023/07/08 12:16:36;;;;;;;;;;;;;;;;;;5128817;27;1829;-59
2023/07/08 12:19:05;;;;;;;;;;;;;;;;;;5129057;27;1840;-56
2023/07/08 12:21:34;;;;;;;;;;;;;;;;;;5128793;27;2021;-58
2023/07/08 12:24:06;;;;;;;;;;;;;;;;;;5128446;27;1999;-56
2023/07/08 12:26:33;;;;;;;;;;;;;;;;;;5128769;27;1912;-58
2023/07/08 12:29:01;;;;;;;;;;;;;;;;;;5128776;27;1819;-58
2023/07/08 12:31:31;;;;;;;;;;;;;;;;;;5128282;27;1727;-60
2023/07/08 12:33:59;;;;;;;;;;;;;;;;;;5129032;27;1799;-55
2023/07/08 12:36:27;;;;;;;;;;;;;;;;;;5128474;28;1902;-59
2023/07/08 12:38:56;;;;;;;;;;;;;;;;;;5128553;28;1919;-58
2023/07/08 12:41:32;;;;;;;;;;;;;;;;;;5128569;28;1972;-55
2023/07/08 12:44:00;;;;;;;;;;;;;;;;;;5128554;28;1978;-58
2023/07/08 12:46:28;;;;;;;;;;;;;;;;;;5128372;28;2006;-59
2023/07/08 12:48:55;;;;;;;;;;;;;;;;;;5128556;28;1872;-60
2023/07/08 12:51:26;;;;;;;;;;;;;;;;;;5110437;28;2024;-56
2023/07/08 12:53:54;;;;;;;;;;;;;;;;;;5113333;28;2097;-54
2023/07/08 12:56:22;;;;;;;;;;;;;;;;;;5108155;28;1752;-57
2023/07/08 12:58:55;;;;;;;;;;;;;;;;;;5128363;28;2121;-55
2023/07/08 13:01:25;;;;;;;;;;;;;;;;;;5130627;27;2077;-59
2023/07/08 13:03:54;;;;;;;;;;;;;;;;;;5132757;27;1746;-60
2023/07/08 13:06:23;;;;;;;;;;;;;;;;;;5113537;27;2095;-55
2023/07/08 13:08:51;;;;;;;;;;;;;;;;;;5132480;27;2050;-54
2023/07/08 13:11:20;;;;;;;;;;;;;;;;;;5132772;27;2081;-59
2023/07/08 13:13:50;;;;;;;;;;;;;;;;;;5131997;27;1972;-54
2023/07/08 13:16:18;;;;;;;;;;;;;;;;;;5132714;27;1863;-57
2023/07/08 13:18:45;;;;;;;;;;;;;;;;;;5112101;28;2165;-54
2023/07/08 13:21:13;;;;;;;;;;;;;;;;;;5111792;28;2066;-58
2023/07/08 13:23:41;;;;;;;;;;;;;;;;;;5112119;28;1870;-54
2023/07/08 13:26:28;;;;;;;;;;;;;;;;;;5114580;27;1865;-57
2023/07/08 13:29:00;;;;;;;;;;;;;;;;;;5132033;27;2080;-56
2023/07/08 13:31:38;;;;;;;;;;;;;;;;;;5132318;27;1946;-60
2023/07/08 13:34:08;;;;;;;;;;;;;;;;;;5132212;27;1692;-54
2023/07/08 13:36:38;;;;;;;;;;;;;;;;;;5131696;27;1872;-59
2023/07/08 13:39:08;;;;;;;;;;;;;;;;;;5111689;28;1877;-57
2023/07/08 13:41:36;;;;;;;;;;;;;;;;;;5111491;28;1942;-57
2023/07/08 13:44:07;;;;;;;;;;;;;;;;;;5111188;28;1985;-60
2023/07/08 13:46:39;;;;;;;;;;;;;;;;;;5111011;28;1989;-60
2023/07/08 13:49:14;;;;;;;;;;;;;;;;;;5111580;27;2312;-59
2023/07/08 13:51:42;;;;;;;;;;;;;;;;;;5110870;28;1926;-59
2023/07/08 13:54:14;;;;;;;;;;;;;;;;;;5111142;28;1931;-60
2023/07/08 13:56:42;;;;;;;;;;;;;;;;;;5111369;28;2175;-56
2023/07/08 13:59:11;;;;;;;;;;;;;;;;;;5111155;28;2027;-54
2023/07/08 14:01:40;;;;;;;;;;;;;;;;;;5111122;28;2119;-56
2023/07/08 14:04:07;;;;;;;;;;;;;;;;;;5111289;27;2159;-59
2023/07/08 14:06:36;;;;;;;;;;;;;;;;;;5110772;27;2073;-54
2023/07/08 14:09:11;;;;;;;;;;;;;;;;;;5110996;28;2064;-51
2023/07/08 14:11:38;;;;;;;;;;;;;;;;;;5110178;28;1955;-52
2023/07/08 14:14:07;;;;;;;;;;;;;;;;;;5110161;27;2080;-51
2023/07/08 14:16:37;;;;;;;;;;;;;;;;;;5111148;28;2177;-53
2023/07/08 14:19:06;;;;;;;;;;;;;;;;;;5111034;28;1863;-52
2023/07/08 14:21:35;;;;;;;;;;;;;;;;;;5110097;28;2116;-59
2023/07/08 14:24:08;;;;;;;;;;;;;;;;;;5110809;28;2333;-55
2023/07/08 14:26:36;;;;;;;;;;;;;;;;;;5110658;28;1775;-52
2023/07/08 14:29:05;;;;;;;;;;;;;;;;;;5130656;27;2019;-53
2023/07/08 14:31:32;;;;;;;;;;;;;;;;;;5130673;27;2241;-56
2023/07/08 14:34:05;;;;;;;;;;;;;;;;;;5131131;27;2128;-59
2023/07/08 14:36:33;;;;;;;;;;;;;;;;;;5130472;27;1965;-60
2023/07/08 14:39:01;;;;;;;;;;;;;;;;;;5131137;27;1777;-53
2023/07/08 14:41:28;;;;;;;;;;;;;;;;;;5111929;27;2345;-57
2023/07/08 14:43:55;;;;;;;;;;;;;;;;;;5130487;27;1981;-60
2023/07/08 14:46:23;;;;;;;;;;;;;;;;;;5130864;27;2049;-60
2023/07/08 14:48:50;;;;;;;;;;;;;;;;;;5131043;27;1807;-56
2023/07/08 14:51:17;;;;;;;;;;;;;;;;;;5125533;27;2098;-58
2023/07/08 14:53:45;;;;;;;;;;;;;;;;;;5109911;28;1938;-55
2023/07/08 14:56:14;;;;;;;;;;;;;;;;;;5110194;28;1822;-59
2023/07/08 14:58:43;;;;;;;;;;;;;;;;;;5109755;28;2044;-53
2023/07/08 15:01:20;;;;;;;;;;;;;;;;;;5110393;27;2207;-58
2023/07/08 15:03:47;;;;;;;;;;;;;;;;;;5109946;27;1952;-58
2023/07/08 15:06:14;;;;;;;;;;;;;;;;;;5110088;28;2143;-51
2023/07/08 15:08:42;;;;;;;;;;;;;;;;;;5109396;28;1989;-58
2023/07/08 15:11:11;;;;;;;;;;;;;;;;;;5110102;28;2072;-58
2023/07/08 15:13:39;;;;;;;;;;;;;;;;;;5109491;27;2059;-60
2023/07/08 15:16:10;;;;;;;;;;;;;;;;;;5110054;28;1978;-58
2023/07/08 15:18:38;;;;;;;;;;;;;;;;;;5109745;27;1893;-61
2023/07/08 15:21:07;;;;;;;;;;;;;;;;;;5109268;28;1875;-60
2023/07/08 15:23:35;;;;;;;;;;;;;;;;;;5109132;28;2029;-53
2023/07/08 15:26:02;;;;;;;;;;;;;;;;;;5109968;28;2159;-58
2023/07/08 15:28:41;;;;;;;;;;;;;;;;;;5110079;27;1845;-60
2023/07/08 15:31:13;;;;;;;;;;;;;;;;;;5110926;28;2365;-61
2023/07/08 15:33:41;;;;;;;;;;;;;;;;;;5110177;28;1996;-62
2023/07/08 15:36:11;;;;;;;;;;;;;;;;;;5110292;28;2273;-57
2023/07/08 15:38:41;;;;;;;;;;;;;;;;;;5110241;28;1877;-60
2023/07/08 15:41:25;;;;;;;;;;;;;;;;;;5110486;28;2015;-61
2023/07/08 15:43:53;;;;;;;;;;;;;;;;;;5109554;28;1945;-60
2023/07/08 15:46:20;;;;;;;;;;;;;;;;;;5110093;28;1970;-54
2023/07/08 15:48:49;;;;;;;;;;;;;;;;;;5111128;27;1751;-55
2023/07/08 15:51:18;;;;;;;;;;;;;;;;;;5109229;28;1923;-55
2023/07/08 15:53:45;;;;;;;;;;;;;;;;;;5121682;27;1864;-58
2023/07/08 15:56:14;;;;;;;;;;;;;;;;;;5110747;27;2058;-61
2023/07/08 15:58:42;;;;;;;;;;;;;;;;;;5108416;28;1940;-60
2023/07/08 16:01:15;;;;;;;;;;;;;;;;;;5109534;28;2083;-59
2023/07/08 16:03:43;;;;;;;;;;;;;;;;;;5109283;28;2013;-67
2023/07/08 16:06:10;;;;;;;;;;;;;;;;;;5113323;27;2111;-63
2023/07/08 16:08:38;;;;;;;;;;;;;;;;;;5109117;28;1905;-56
2023/07/08 16:11:28;;;;;;;;;;;;;;;;;;5109579;28;2060;-58
2023/07/08 16:13:55;;;;;;;;;;;;;;;;;;5094612;28;2042;-62
2023/07/08 16:16:25;;;;;;;;;;;;;;;;;;5109313;28;2020;-54
2023/07/08 16:18:52;;;;;;;;;;;;;;;;;;5112702;27;1969;-57
2023/07/08 16:21:20;;;;;;;;;;;;;;;;;;5111668;28;2073;-63
2023/07/08 16:23:47;;;;;;;;;;;;;;;;;;5110009;27;2006;-60
2023/07/08 16:26:15;;;;;;;;;;;;;;;;;;5108867;28;2140;-58
2023/07/08 16:28:46;;;;;;;;;;;;;;;;;;5109297;28;1899;-59
2023/07/08 16:31:19;;;;;;;;;;;;;;;;;;5109425;27;2002;-55
2023/07/08 16:33:47;;;;;;;;;;;;;;;;;;5111332;27;2120;-60
2023/07/08 16:36:16;;;;;;;;;;;;;;;;;;5108173;28;2046;-64
2023/07/08 16:38:43;;;;;;;;;;;;;;;;;;5108783;28;1965;-63
2023/07/08 16:41:30;;;;;;;;;;;;;;;;;;5108681;28;1961;-64
2023/07/08 16:43:58;;;;;;;;;;;;;;;;;;5109134;28;1805;-58
2023/07/08 16:46:25;;;;;;;;;;;;;;;;;;5108642;28;1904;-68
2023/07/08 16:48:53;;;;;;;;;;;;;;;;;;5108547;28;2001;-58
2023/07/08 16:51:26;;;;;;;;;;;;;;;;;;5108875;28;2225;-55
2023/07/08 16:53:58;;;;;;;;;;;;;;;;;;5109005;28;2023;-63
2023/07/08 16:56:25;;;;;;;;;;;;;;;;;;5108381;28;1975;-56
2023/07/08 16:58:53;;;;;;;;;;;;;;;;;;5116000;28;2129;-58
2023/07/08 17:01:22;;;;;;;;;;;;;;;;;;5113360;28;1863;-55
2023/07/08 17:03:51;;;;;;;;;;;;;;;;;;5110764;28;2101;-58
2023/07/08 17:06:18;;;;;;;;;;;;;;;;;;5109319;28;1967;-62
2023/07/08 17:08:46;;;;;;;;;;;;;;;;;;5108610;28;2348;-55
2023/07/08 17:11:13;;;;;;;;;;;;;;;;;;5108622;28;2101;-61
2023/07/08 17:13:41;;;;;;;;;;;;;;;;;;5108735;28;1947;-61
2023/07/08 17:16:12;;;;;;;;;;;;;;;;;;5109251;28;1973;-62
2023/07/08 17:18:40;;;;;;;;;;;;;;;;;;5107903;28;2033;-60
2023/07/08 17:21:11;;;;;;;;;;;;;;;;;;5108673;28;2619;-55
2023/07/08 17:23:38;;;;;;;;;;;;;;;;;;5108465;28;2032;-58